createdAt,value
2023-04-02T00:00:11.168Z,11.30
2023-04-02T00:02:56.826Z,11.30
2023-04-02T00:05:30.171Z,11.26
2023-04-02T00:08:22.256Z,11.30
2023-04-02T00:10:51.763Z,11.22
2023-04-02T00:13:18.266Z,11.26
2023-04-02T00:15:49.688Z,11.24
2023-04-02T00:18:21.231Z,11.30
2023-04-02T00:21:09.018Z,11.28
2023-04-02T00:23:40.895Z,11.24
2023-04-02T00:26:37.777Z,11.10
2023-04-02T00:29:07.500Z,11.20
2023-04-02T00:31:39.100Z,11.20
2023-04-02T00:34:09.982Z,11.28
2023-04-02T00:36:37.607Z,11.20
2023-04-02T00:39:32.887Z,11.20
2023-04-02T00:42:06.000Z,11.20
2023-04-02T00:44:43.690Z,11.20
2023-04-02T00:47:24.893Z,11.20
2023-04-02T00:50:01.358Z,11.20
2023-04-02T00:52:31.839Z,11.20
2023-04-02T00:55:22.782Z,11.20
2023-04-02T00:57:51.908Z,11.16
2023-04-02T01:00:35.093Z,11.12
2023-04-02T01:03:29.242Z,11.10
2023-04-02T01:06:13.146Z,11.10
2023-04-02T01:09:12.557Z,11.10
2023-04-02T01:11:41.841Z,11.10
2023-04-02T01:14:29.607Z,11.10
2023-04-02T01:17:15.513Z,11.12
2023-04-02T01:20:35.736Z,11.00
2023-04-02T01:23:16.984Z,11.00
2023-04-02T01:26:12.526Z,11.02
2023-04-02T01:29:01.550Z,11.00
2023-04-02T01:31:31.082Z,11.00
2023-04-02T01:33:57.882Z,11.00
2023-04-02T01:36:43.503Z,11.00
2023-04-02T01:39:29.784Z,10.96
2023-04-02T01:42:36.410Z,10.90
2023-04-02T01:45:09.025Z,10.90
2023-04-02T01:47:35.907Z,10.90
2023-04-02T01:50:19.129Z,10.90
2023-04-02T01:52:51.362Z,10.90
2023-04-02T01:55:49.886Z,10.90
2023-04-02T01:58:25.322Z,10.82
2023-04-02T02:01:02.079Z,10.80
2023-04-02T02:03:30.259Z,10.86
2023-04-02T02:05:57.929Z,10.80
2023-04-02T02:08:46.029Z,10.80
2023-04-02T02:11:24.231Z,10.80
2023-04-02T02:14:12.002Z,10.80
2023-04-02T02:16:42.074Z,10.80
2023-04-02T02:19:25.417Z,10.80
2023-04-02T02:21:56.370Z,10.80
2023-04-02T02:24:31.855Z,10.80
2023-04-02T02:27:12.330Z,10.80
2023-04-02T02:29:43.609Z,10.80
2023-04-02T02:32:12.888Z,10.84
2023-04-02T02:34:49.801Z,10.82
2023-04-02T02:37:25.060Z,10.80
2023-04-02T02:39:59.488Z,10.80
2023-04-02T02:42:54.979Z,10.84
2023-04-02T02:45:28.164Z,10.82
2023-04-02T02:47:56.987Z,10.80
2023-04-02T02:50:31.693Z,10.90
2023-04-02T02:53:04.749Z,10.88
2023-04-02T02:55:36.939Z,10.90
2023-04-02T02:58:31.940Z,10.90
2023-04-02T03:01:18.652Z,10.90
2023-04-02T03:03:47.982Z,10.90
2023-04-02T03:06:20.633Z,10.90
2023-04-02T03:09:38.264Z,10.98
2023-04-02T03:12:51.332Z,10.90
2023-04-02T03:15:47.511Z,10.90
2023-04-02T03:18:31.745Z,10.90
2023-04-02T03:21:12.108Z,10.98
2023-04-02T03:23:47.279Z,10.96
2023-04-02T03:26:23.847Z,11.00
2023-04-02T03:29:00.743Z,11.00
2023-04-02T03:31:41.941Z,11.00
2023-04-02T03:34:23.732Z,11.00
2023-04-02T03:36:59.520Z,11.00
2023-04-02T03:39:38.882Z,11.00
2023-04-02T03:42:25.210Z,11.00
2023-04-02T03:45:05.544Z,11.00
2023-04-02T03:47:42.875Z,11.06
2023-04-02T03:50:19.364Z,11.10
2023-04-02T03:52:46.197Z,11.10
2023-04-02T03:55:30.504Z,11.16
2023-04-02T03:58:20.622Z,11.12
2023-04-02T04:01:12.330Z,11.10
2023-04-02T04:03:45.846Z,11.10
2023-04-02T04:06:34.829Z,11.14
2023-04-02T04:09:11.975Z,11.20
2023-04-02T04:11:46.666Z,11.20
2023-04-02T04:14:45.423Z,11.20
2023-04-02T04:17:30.081Z,11.22
2023-04-02T04:20:14.849Z,11.30
2023-04-02T04:22:41.840Z,11.30
2023-04-02T04:25:29.825Z,11.28
2023-04-02T04:28:21.404Z,11.30
2023-04-02T04:31:11.014Z,11.30
2023-04-02T04:33:50.476Z,11.30
2023-04-02T04:36:31.457Z,11.30
2023-04-02T04:39:14.632Z,11.30
2023-04-02T04:41:47.192Z,11.40
2023-04-02T04:44:23.669Z,11.40
2023-04-02T04:47:03.844Z,11.40
2023-04-02T04:49:44.879Z,11.40
2023-04-02T04:52:23.762Z,11.40
2023-04-02T04:54:50.399Z,11.40
2023-04-02T04:57:39.936Z,11.26
2023-04-02T05:00:50.984Z,11.30
2023-04-02T05:03:31.293Z,11.40
2023-04-02T05:06:34.380Z,11.42
2023-04-02T05:09:20.197Z,11.40
2023-04-02T05:12:31.130Z,11.50
2023-04-02T05:15:32.685Z,11.50
2023-04-02T05:18:41.827Z,11.50
2023-04-02T05:21:33.217Z,11.58
2023-04-02T05:24:37.506Z,11.60
2023-04-02T05:27:33.687Z,11.62
2023-04-02T05:30:15.760Z,11.70
2023-04-02T05:33:17.868Z,11.70
2023-04-02T05:35:49.555Z,11.70
2023-04-02T05:38:23.701Z,11.70
2023-04-02T05:41:00.627Z,11.72
2023-04-02T05:43:31.762Z,11.80
2023-04-02T05:46:07.851Z,11.80
2023-04-02T05:48:43.351Z,11.80
2023-04-02T05:51:22.063Z,11.90
2023-04-02T05:53:59.519Z,11.90
2023-04-02T05:56:40.548Z,11.92
2023-04-02T05:59:37.395Z,12.00
2023-04-02T06:02:33.461Z,11.94
2023-04-02T06:05:15.062Z,12.00
2023-04-02T06:07:54.386Z,12.00
2023-04-02T06:10:46.249Z,12.06
2023-04-02T06:13:18.536Z,12.18
2023-04-02T06:15:47.869Z,12.30
2023-04-02T06:18:25.945Z,12.40
2023-04-02T06:20:54.200Z,12.48
2023-04-02T06:23:40.344Z,12.50
2023-04-02T06:26:47.835Z,12.50
2023-04-02T06:29:39.563Z,12.60
2023-04-02T06:32:11.933Z,12.70
2023-04-02T06:34:42.551Z,12.70
2023-04-02T06:37:36.424Z,12.80
2023-04-02T06:40:33.934Z,12.86
2023-04-02T06:43:18.324Z,12.90
2023-04-02T06:46:57.611Z,13.00
2023-04-02T06:49:45.923Z,13.10
2023-04-02T06:52:29.148Z,13.12
2023-04-02T06:54:56.995Z,13.20
2023-04-02T06:57:23.995Z,13.30
2023-04-02T06:59:52.038Z,13.30
2023-04-02T07:02:38.677Z,13.30
2023-04-02T07:05:09.472Z,13.40
2023-04-02T07:07:39.458Z,13.40
2023-04-02T07:10:09.355Z,13.46
2023-04-02T07:12:36.156Z,13.50
2023-04-02T07:15:03.815Z,13.60
2023-04-02T07:17:30.706Z,13.60
2023-04-02T07:19:57.368Z,13.70
2023-04-02T07:22:25.639Z,13.80
2023-04-02T07:24:55.862Z,13.80
2023-04-02T07:27:22.521Z,13.90
2023-04-02T07:29:49.139Z,14.00
2023-04-02T07:32:15.934Z,14.10
2023-04-02T07:34:42.612Z,14.20
2023-04-02T07:37:14.509Z,14.30
2023-04-02T07:39:41.487Z,14.40
2023-04-02T07:42:08.127Z,14.44
2023-04-02T07:44:34.853Z,14.50
2023-04-02T07:47:01.699Z,14.70
2023-04-02T07:49:28.536Z,14.78
2023-04-02T07:51:55.133Z,14.84
2023-04-02T07:54:21.799Z,14.90
2023-04-02T07:56:48.418Z,14.96
2023-04-02T07:59:15.040Z,15.10
2023-04-02T08:01:42.903Z,15.20
2023-04-02T08:04:19.534Z,15.26
2023-04-02T08:06:47.415Z,15.30
2023-04-02T08:09:17.581Z,15.30
2023-04-02T08:11:46.356Z,15.34
2023-04-02T08:14:12.978Z,15.30
2023-04-02T08:16:55.643Z,15.20
2023-04-02T08:19:22.729Z,15.30
2023-04-02T08:21:51.591Z,15.30
2023-04-02T08:24:19.760Z,15.30
2023-04-02T08:26:48.795Z,15.26
2023-04-02T08:29:16.010Z,15.20
2023-04-02T08:31:42.651Z,15.08
2023-04-02T08:34:09.977Z,15.00
2023-04-02T08:36:41.232Z,14.92
2023-04-02T08:39:12.612Z,14.90
2023-04-02T08:41:54.898Z,14.86
2023-04-02T08:44:45.466Z,14.80
2023-04-02T08:47:15.445Z,14.80
2023-04-02T08:49:58.906Z,14.76
2023-04-02T08:52:30.445Z,14.80
2023-04-02T08:54:58.110Z,14.76
2023-04-02T08:57:51.612Z,14.70
2023-04-02T09:00:41.623Z,14.70
2023-04-02T09:03:20.731Z,14.80
2023-04-02T09:05:50.832Z,14.90
2023-04-02T09:08:22.257Z,15.00
2023-04-02T09:11:21.542Z,14.98
2023-04-02T09:13:55.959Z,14.90
2023-04-02T09:16:43.425Z,14.94
2023-04-02T09:19:26.342Z,15.00
2023-04-02T09:22:05.964Z,15.00
2023-04-02T09:24:33.902Z,15.10
2023-04-02T09:27:00.674Z,15.10
2023-04-02T09:29:43.265Z,15.10
2023-04-02T09:32:41.277Z,15.08
2023-04-02T09:35:26.052Z,14.98
2023-04-02T09:38:17.672Z,14.90
2023-04-02T09:41:19.832Z,14.80
2023-04-02T09:43:46.541Z,14.80
2023-04-02T09:46:13.124Z,14.76
2023-04-02T09:48:54.344Z,14.76
2023-04-02T09:51:34.590Z,14.80
2023-04-02T09:54:04.197Z,14.80
2023-04-02T09:56:39.669Z,14.70
2023-04-02T09:59:15.115Z,14.74
2023-04-02T10:01:55.272Z,14.80
2023-04-02T10:04:48.153Z,14.80
2023-04-02T10:07:39.678Z,14.86
2023-04-02T10:10:36.788Z,14.90
2023-04-02T10:13:08.322Z,14.80
2023-04-02T10:15:55.881Z,14.80
2023-04-02T10:18:33.665Z,14.80
2023-04-02T10:21:04.460Z,14.80
2023-04-02T10:23:32.311Z,14.80
2023-04-02T10:26:36.133Z,14.80
2023-04-02T10:30:02.131Z,14.70
2023-04-02T10:32:53.825Z,14.60
2023-04-02T10:35:49.591Z,14.50
2023-04-02T10:38:28.288Z,14.60
2023-04-02T10:41:06.894Z,14.60
2023-04-02T10:43:36.513Z,14.60
2023-04-02T10:46:19.630Z,14.50
2023-04-02T10:49:03.714Z,14.40
2023-04-02T10:51:48.795Z,14.30
2023-04-02T10:54:43.150Z,14.20
2023-04-02T10:57:28.074Z,14.10
2023-04-02T11:00:10.817Z,14.06
2023-04-02T11:03:27.909Z,14.00
2023-04-02T11:05:59.986Z,13.90
2023-04-02T11:08:40.386Z,14.00
2023-04-02T11:11:22.554Z,13.90
2023-04-02T11:14:26.327Z,13.90
2023-04-02T11:16:58.157Z,13.86
2023-04-02T11:19:33.552Z,13.90
2023-04-02T11:22:06.677Z,13.90
2023-04-02T11:24:51.083Z,14.00
2023-04-02T11:27:36.084Z,14.10
2023-04-02T11:30:24.313Z,14.30
2023-04-02T11:32:51.245Z,14.50
2023-04-02T11:35:32.915Z,14.58
2023-04-02T11:38:09.417Z,14.70
2023-04-02T11:40:50.466Z,14.82
2023-04-02T11:43:35.763Z,14.90
2023-04-02T11:46:39.746Z,14.90
2023-04-02T11:49:39.551Z,14.90
2023-04-02T11:52:38.883Z,15.00
2023-04-02T11:55:27.125Z,15.08
2023-04-02T11:58:41.256Z,15.00
2023-04-02T12:01:53.924Z,14.90
2023-04-02T12:04:38.470Z,14.90
2023-04-02T12:07:17.508Z,14.80
2023-04-02T12:10:00.768Z,14.80
2023-04-02T12:12:36.423Z,14.80
2023-04-02T12:15:08.456Z,14.70
2023-04-02T12:17:39.122Z,14.62
2023-04-02T12:20:13.652Z,14.66
2023-04-02T12:22:50.738Z,14.60
2023-04-02T12:25:31.624Z,14.60
2023-04-02T12:28:10.253Z,14.60
2023-04-02T12:30:38.734Z,14.60
2023-04-02T12:33:41.490Z,14.42
2023-04-02T12:36:21.506Z,14.40
2023-04-02T12:38:54.769Z,14.38
2023-04-02T12:41:24.270Z,14.30
2023-04-02T12:44:03.306Z,14.20
2023-04-02T12:46:33.546Z,14.10
2023-04-02T12:49:20.497Z,14.10
2023-04-02T12:51:48.430Z,14.00
2023-04-02T12:54:20.691Z,13.90
2023-04-02T12:56:49.000Z,13.80
2023-04-02T12:59:39.035Z,13.80
2023-04-02T13:02:25.068Z,13.80
2023-04-02T13:05:00.762Z,13.90
2023-04-02T13:07:32.200Z,13.90
2023-04-02T13:10:01.565Z,13.94
2023-04-02T13:12:33.545Z,14.00
2023-04-02T13:15:04.791Z,14.00
2023-04-02T13:17:42.424Z,14.06
2023-04-02T13:20:30.603Z,14.02
2023-04-02T13:22:59.219Z,14.00
2023-04-02T13:25:34.593Z,13.90
2023-04-02T13:28:02.219Z,13.88
2023-04-02T13:30:29.489Z,13.90
2023-04-02T13:32:56.498Z,13.90
2023-04-02T13:35:23.396Z,13.90
2023-04-02T13:37:50.157Z,13.90
2023-04-02T13:40:19.220Z,13.90
2023-04-02T13:42:48.671Z,13.90
2023-04-02T13:45:26.075Z,13.90
2023-04-02T13:47:53.862Z,13.90
2023-04-02T13:50:23.913Z,13.80
2023-04-02T13:52:52.011Z,13.80
2023-04-02T13:55:27.948Z,13.70
2023-04-02T13:57:56.827Z,13.60
2023-04-02T14:00:24.077Z,13.50
2023-04-02T14:03:04.388Z,13.40
2023-04-02T14:06:28.145Z,13.30
2023-04-02T14:09:06.951Z,13.20
2023-04-02T14:11:54.718Z,13.30
2023-04-02T14:15:16.305Z,13.22
2023-04-02T14:18:10.497Z,13.10
2023-04-02T14:21:07.867Z,13.00
2023-04-02T14:24:05.948Z,12.88
2023-04-02T14:27:32.654Z,12.64
2023-04-02T14:30:17.305Z,12.40
2023-04-02T14:33:28.459Z,12.30
2023-04-02T14:36:29.416Z,12.30
2023-04-02T14:39:09.128Z,12.20
2023-04-02T14:42:01.741Z,12.18
2023-04-02T14:44:38.394Z,12.10
2023-04-02T14:47:21.797Z,12.08
2023-04-02T14:49:55.099Z,12.10
2023-04-02T14:52:26.544Z,12.00
2023-04-02T14:55:02.365Z,11.90
2023-04-02T14:57:49.011Z,11.90
2023-04-02T15:00:49.190Z,11.90
2023-04-02T15:03:25.846Z,11.90
2023-04-02T15:06:04.652Z,11.90
2023-04-02T15:09:02.110Z,11.86
2023-04-02T15:11:38.593Z,11.80
2023-04-02T15:14:35.392Z,11.80
2023-04-02T15:17:01.986Z,11.80
2023-04-02T15:19:28.642Z,11.80
2023-04-02T15:22:25.187Z,11.90
2023-04-02T15:24:57.715Z,11.82
2023-04-02T15:28:18.358Z,11.80
2023-04-02T15:30:46.418Z,11.70
2023-04-02T15:33:28.123Z,11.70
2023-04-02T15:36:41.024Z,11.58
2023-04-02T15:40:22.612Z,11.60
2023-04-02T15:43:20.588Z,11.54
2023-04-02T15:46:17.377Z,11.56
2023-04-02T15:49:17.195Z,11.50
2023-04-02T15:52:27.284Z,11.50
2023-04-02T15:55:57.202Z,11.40
2023-04-02T15:59:21.461Z,11.30
2023-04-02T16:02:18.144Z,11.20
2023-04-02T16:05:13.137Z,11.20
2023-04-02T16:07:51.816Z,11.20
2023-04-02T16:10:40.375Z,11.18
2023-04-02T16:13:35.717Z,11.10
2023-04-02T16:16:22.627Z,11.00
2023-04-02T16:19:16.379Z,11.00
2023-04-02T16:21:54.519Z,10.80
2023-04-02T16:24:22.555Z,10.80
2023-04-02T16:26:57.578Z,10.70
2023-04-02T16:29:55.289Z,10.50
2023-04-02T16:33:06.276Z,10.50
2023-04-02T16:36:01.534Z,10.40
2023-04-02T16:38:54.109Z,10.40
2023-04-02T16:41:39.051Z,10.40
2023-04-02T16:44:17.479Z,10.40
2023-04-02T16:47:25.995Z,10.40
2023-04-02T16:50:27.728Z,10.30
2023-04-02T16:53:27.587Z,10.30
2023-04-02T16:56:12.690Z,10.30
2023-04-02T16:59:07.166Z,10.38
2023-04-02T17:02:03.648Z,10.38
2023-04-02T17:04:46.593Z,10.40
2023-04-02T17:07:34.636Z,10.40
2023-04-02T17:10:30.099Z,10.42
2023-04-02T17:13:25.520Z,10.40
2023-04-02T17:16:44.778Z,10.40
2023-04-02T17:19:14.823Z,10.02
2023-04-02T17:21:47.023Z,9.80
2023-04-02T17:24:14.206Z,9.60
2023-04-02T17:26:43.504Z,9.50
2023-04-02T17:29:23.415Z,9.40
2023-04-02T17:31:52.153Z,9.30
2023-04-02T17:34:23.794Z,9.20
2023-04-02T17:37:32.438Z,9.10
2023-04-02T17:40:08.326Z,9.10
2023-04-02T17:42:52.384Z,9.10
2023-04-02T17:45:49.370Z,9.10
2023-04-02T17:49:02.082Z,8.94
2023-04-02T17:51:57.499Z,8.90
2023-04-02T17:55:05.316Z,8.90
2023-04-02T17:57:47.492Z,8.90
2023-04-02T18:00:36.921Z,8.90
2023-04-02T18:03:40.521Z,8.90
2023-04-02T18:06:39.194Z,8.92
2023-04-02T18:09:46.775Z,8.96
2023-04-02T18:12:55.216Z,8.90
2023-04-02T18:15:24.741Z,8.80
2023-04-02T18:18:10.967Z,8.80
2023-04-02T18:21:00.859Z,8.72
2023-04-02T18:23:39.432Z,8.70
2023-04-02T18:26:22.690Z,8.70
2023-04-02T18:29:23.011Z,8.70
2023-04-02T18:32:46.241Z,8.70
2023-04-02T18:35:29.405Z,8.70
2023-04-02T18:38:17.705Z,8.76
2023-04-02T18:41:29.139Z,8.74
2023-04-02T18:44:37.472Z,8.70
2023-04-02T18:47:27.238Z,8.70
2023-04-02T18:50:16.398Z,8.70
2023-04-02T18:52:43.044Z,8.70
2023-04-02T18:55:21.704Z,8.70
2023-04-02T18:58:16.845Z,8.70
2023-04-02T19:00:46.147Z,8.66
2023-04-02T19:03:25.076Z,8.70
2023-04-02T19:06:21.121Z,8.68
2023-04-02T19:09:13.539Z,8.60
2023-04-02T19:11:40.190Z,8.60
2023-04-02T19:14:20.102Z,8.60
2023-04-02T19:17:43.540Z,8.62
2023-04-02T19:20:58.785Z,8.60
2023-04-02T19:24:27.267Z,8.60
2023-04-02T19:27:18.295Z,8.60
2023-04-02T19:30:16.865Z,8.60
2023-04-02T19:33:20.333Z,8.62
2023-04-02T19:36:03.051Z,8.64
2023-04-02T19:38:54.612Z,8.70
2023-04-02T19:41:36.227Z,8.70
2023-04-02T19:44:02.994Z,8.70
2023-04-02T19:46:29.841Z,8.70
2023-04-02T19:48:59.785Z,8.70
2023-04-02T19:51:27.121Z,8.70
2023-04-02T19:53:53.720Z,8.68
2023-04-02T19:56:21.891Z,8.68
2023-04-02T19:58:48.646Z,8.64
2023-04-02T20:01:15.369Z,8.60
2023-04-02T20:03:42.125Z,8.60
2023-04-02T20:06:08.890Z,8.50
2023-04-02T20:08:36.281Z,8.44
2023-04-02T20:11:03.476Z,8.40
2023-04-02T20:13:30.216Z,8.40
2023-04-02T20:16:02.308Z,8.40
2023-04-02T20:18:30.555Z,8.40
2023-04-02T20:20:57.617Z,8.40
2023-04-02T20:23:24.601Z,8.42
2023-04-02T20:25:56.343Z,8.40
2023-04-02T20:28:26.263Z,8.40
2023-04-02T20:30:53.132Z,8.40
2023-04-02T20:33:23.294Z,8.40
2023-04-02T20:35:51.791Z,8.40
2023-04-02T20:38:19.193Z,8.40
2023-04-02T20:40:52.009Z,8.40
2023-04-02T20:43:18.976Z,8.40
2023-04-02T20:45:57.997Z,8.40
2023-04-02T20:48:30.635Z,8.44
2023-04-02T20:50:57.607Z,8.44
2023-04-02T20:53:25.647Z,8.40
2023-04-02T20:55:52.182Z,8.40
2023-04-02T20:58:19.085Z,8.20
2023-04-02T21:00:46.020Z,8.20
2023-04-02T21:03:12.664Z,8.20
2023-04-02T21:05:44.843Z,8.20
2023-04-02T21:08:12.264Z,8.16
2023-04-02T21:10:40.018Z,8.12
2023-04-02T21:13:07.095Z,8.18
2023-04-02T21:15:34.063Z,8.10
2023-04-02T21:18:01.329Z,8.10
2023-04-02T21:20:27.956Z,8.08
2023-04-02T21:22:54.692Z,8.06
2023-04-02T21:25:21.285Z,8.00
2023-04-02T21:27:47.909Z,7.98
2023-04-02T21:30:14.672Z,7.90
2023-04-02T21:32:41.378Z,7.80
2023-04-02T21:35:08.933Z,7.80
2023-04-02T21:37:36.063Z,7.72
2023-04-02T21:40:03.842Z,7.70
2023-04-02T21:42:30.528Z,7.62
2023-04-02T21:44:57.102Z,7.60
2023-04-02T21:47:24.311Z,7.60
2023-04-02T21:49:50.901Z,7.56
2023-04-02T21:52:17.474Z,7.36
2023-04-02T21:54:44.050Z,7.38
2023-04-02T21:57:10.772Z,7.28
2023-04-02T21:59:37.446Z,7.20
2023-04-02T22:02:04.823Z,7.20
2023-04-02T22:04:33.332Z,7.10
2023-04-02T22:07:00.381Z,7.10
2023-04-02T22:09:27.518Z,7.10
2023-04-02T22:12:01.680Z,7.06
2023-04-02T22:14:28.910Z,7.06
2023-04-02T22:16:55.582Z,7.10
2023-04-02T22:19:22.554Z,7.00
2023-04-02T22:21:49.370Z,7.00
2023-04-02T22:24:18.909Z,7.00
2023-04-02T22:26:46.784Z,6.98
2023-04-02T22:29:13.903Z,6.98
2023-04-02T22:31:40.928Z,7.00
2023-04-02T22:34:07.804Z,6.90
2023-04-02T22:36:35.077Z,6.92
2023-04-02T22:39:06.667Z,7.00
2023-04-02T22:41:33.609Z,7.00
2023-04-02T22:44:01.329Z,7.10
2023-04-02T22:46:30.120Z,7.10
2023-04-02T22:48:57.013Z,7.12
2023-04-02T22:51:25.595Z,7.20
2023-04-02T22:53:55.450Z,7.20
2023-04-02T22:56:32.181Z,7.20
2023-04-02T22:58:59.335Z,7.22
2023-04-02T23:01:30.805Z,7.30
2023-04-02T23:03:57.803Z,7.40
2023-04-02T23:06:25.504Z,7.48
2023-04-02T23:08:53.275Z,7.50
2023-04-02T23:11:23.915Z,7.60
2023-04-02T23:13:54.271Z,7.60
2023-04-02T23:16:22.570Z,7.68
2023-04-02T23:18:49.769Z,7.70
2023-04-02T23:21:19.448Z,7.70
2023-04-02T23:23:47.903Z,7.80
2023-04-02T23:26:26.438Z,7.80
2023-04-02T23:28:53.086Z,7.80
2023-04-02T23:31:22.474Z,7.88
2023-04-02T23:33:50.669Z,7.90
2023-04-02T23:36:24.036Z,7.90
2023-04-02T23:38:57.167Z,7.70
2023-04-02T23:41:27.137Z,7.88
2023-04-02T23:43:56.148Z,7.90
2023-04-02T23:46:24.793Z,7.94
2023-04-02T23:48:52.746Z,8.00
2023-04-02T23:51:19.999Z,8.00
2023-04-02T23:53:47.553Z,8.00
2023-04-02T23:56:14.147Z,8.00
2023-04-02T23:58:40.856Z,8.00
